Angelica, Pennsylvania
Current Conditions -  °F | °C
As of 12:54 PM on Thursday 27 Nov 2014 (Local Time) from KRDG Reporting Station
Overcast Overcast  
Wind Chill: 30°   Ceiling: 2500
Heat Index: 37°   Visibility: 10mi
Dew Point: 27°   Wind: 9mph
Humidity: 67%   Direction: 310°NW
Pressure: 30.01"   Gusts: NA
Location:  40.2411°N, 75.9752°W
Report Text: KRDG 271754Z 31008KT 10SM OVC025 03/M03 A3001 RMK AO2 SLP171 T00281028 10033 20011 58005
Loading
Personal Weather Stations






























Interactive Weather Map New forecast layout! Learn more

10-Day Weather Forecast

Advertisements
Track Severe Weather on mobile